西安 の空港の天気 - METARとTAF

西安咸陽国際空港 ( ZLXY / XIY ) - 中国 陝西省西安市
飛行場実況気象(Metar)
観測時間10/18 16:00 CST (10/18 08:00 UTC)
風向・風速東 3m/s
視程6000m
天気現象
なし
気温20℃
湿度56%
気圧1019hPa
METARZLXY 180800Z 09003MPS 010V140 6000 NSC 20/11 Q1019 NOSIG
過去の天気等 Google飛行場航空写真 Wunderground天気予報

過去48時間のMETAR

飛行場予報(TAF)
発表時間: 10/18 11:05 CST (10/18 03:05 UTC)
予報対象時間: 18日14時 CST ~ 19日14時 CST
風向・風速東北東 3m/s
視程3000m
天気現象もや
なし
TAF ZLXY 180305Z 1806/1906 06003MPS 3000 BR NSC TX20/1807Z TN06/1822Z